Time;durP1;ratioP1;P1;durP2;ratioP2;P2;SDS_P1;SDS_P2;PMS_P1;PMS_P2;Temp;Humidity;BMP_temperature;BMP_pressure;BME280_temperature;BME280_humidity;BME280_pressure;Samples;Min_cycle;Max_cycle;Signal;HPM_P1;HPM_P2
2023/12/14 00:00:33;;;;;;;1.45;1.13;;;19.20;50.80;;;;;;5055273;28;20045;-29
2023/12/14 00:03:00;;;;;;;1.65;1.10;;;19.40;69.60;;;;;;5055493;28;20445;-25
2023/12/14 00:05:28;;;;;;;1.30;1.10;;;19.40;49.20;;;;;;5054920;28;20564;-27
2023/12/14 00:07:55;;;;;;;1.10;1.00;;;;;;;;;;5066429;28;20459;-30
2023/12/14 00:10:22;;;;;;;1.17;1.08;;;19.50;69.40;;;;;;5065575;28;20052;-25
2023/12/14 00:12:50;;;;;;;1.38;1.10;;;;;;;;;;5074845;28;20059;-29
2023/12/14 00:15:17;;;;;;;1.00;0.90;;;19.10;62.80;;;;;;5075031;28;20056;-25
2023/12/14 00:17:44;;;;;;;1.20;1.10;;;19.10;69.30;;;;;;5073691;28;20044;-24
2023/12/14 00:20:11;;;;;;;1.27;1.10;;;19.30;49.30;;;;;;5055225;28;20057;-27
2023/12/14 00:22:40;;;;;;;1.00;0.90;;;19.30;69.80;;;;;;5054971;28;20123;-30
2023/12/14 00:25:07;;;;;;;1.20;1.10;;;19.90;69.80;;;;;;5070314;28;20095;-32
2023/12/14 00:27:34;;;;;;;1.15;1.05;;;19.50;69.60;;;;;;5063537;28;20102;-26
2023/12/14 00:30:01;;;;;;;1.50;1.30;;;19.90;69.80;;;;;;5067153;28;20053;-25
2023/12/14 00:32:27;;;;;;;1.40;1.10;;;19.50;51.20;;;;;;5074825;28;20049;-25
2023/12/14 00:34:54;;;;;;;1.20;1.10;;;19.40;69.90;;;;;;5074586;28;20098;-30
2023/12/14 00:37:21;;;;;;;1.80;1.30;;;19.50;69.60;;;;;;5074384;28;20056;-32
2023/12/14 00:39:49;;;;;;;1.38;1.13;;;20.40;55.80;;;;;;5074509;28;20395;-25
2023/12/14 00:42:16;;;;;;;1.23;1.10;;;19.70;66.10;;;;;;5069816;28;20048;-26
2023/12/14 00:44:43;;;;;;;1.80;1.20;;;;;;;;;;5054964;28;20057;-26
2023/12/14 00:47:10;;;;;;;1.40;1.10;;;19.20;61.40;;;;;;5054568;28;20049;-29
2023/12/14 00:49:37;;;;;;;1.38;1.00;;;19.70;69.80;;;;;;5054462;28;20048;-24
2023/12/14 00:52:05;;;;;;;1.50;1.10;;;;;;;;;;5054354;28;20504;-28
2023/12/14 00:54:32;;;;;;;2.03;1.02;;;;;;;;;;5054511;28;20484;-27
2023/12/14 00:57:00;;;;;;;1.60;1.13;;;20.00;70.00;;;;;;5055300;28;20464;-25
2023/12/14 00:59:27;;;;;;;1.50;1.30;;;19.10;69.50;;;;;;5054655;28;20095;-32
2023/12/14 01:01:54;;;;;;;0.95;0.90;;;;;;;;;;5054466;28;20484;-27
2023/12/14 01:04:21;;;;;;;1.67;1.10;;;18.70;69.60;;;;;;5053423;28;20185;-25
2023/12/14 01:06:48;;;;;;;1.40;1.02;;;18.60;69.20;;;;;;5054136;28;20664;-26
2023/12/14 01:09:15;;;;;;;1.35;1.20;;;19.00;63.70;;;;;;5054085;28;20048;-25
2023/12/14 01:11:42;;;;;;;1.77;1.15;;;19.50;69.60;;;;;;5053936;28;20044;-29
2023/12/14 01:14:10;;;;;;;1.08;0.98;;;19.40;49.40;;;;;;5055281;28;20099;-27
2023/12/14 01:16:37;;;;;;;1.60;1.10;;;;;;;;;;5053739;28;20418;-27
2023/12/14 01:19:05;;;;;;;1.90;1.25;;;19.70;70.00;;;;;;5066208;28;20501;-25
2023/12/14 01:21:31;;;;;;;1.20;1.00;;;;;;;;;;5073889;28;20083;-24
2023/12/14 01:24:00;;;;;;;1.50;1.17;;;;;;;;;;5073759;28;20046;-25
2023/12/14 01:26:27;;;;;;;1.40;1.20;;;19.10;69.30;;;;;;5059698;28;20151;-30
2023/12/14 01:28:52;;;;;;;1.50;1.10;;;19.10;59.50;;;;;;5053931;28;20491;-25
2023/12/14 01:31:23;;;;;;;1.20;1.10;;;19.50;49.40;;;;;;5060644;28;20086;-27
2023/12/14 01:33:49;;;;;;;1.50;1.10;;;19.20;52.60;;;;;;5073700;28;20045;-27
2023/12/14 01:36:21;;;;;;;1.30;1.00;;;19.40;69.80;;;;;;5073035;28;20086;-29
2023/12/14 01:38:48;;;;;;;1.38;1.25;;;19.30;62.80;;;;;;5073659;28;20052;-27
2023/12/14 01:41:15;;;;;;;1.20;1.10;;;19.70;69.60;;;;;;5073743;28;20048;-29
2023/12/14 01:43:42;;;;;;;1.92;1.23;;;;;;;;;;5073461;28;20107;-27
2023/12/14 01:46:09;;;;;;;1.20;1.10;;;18.30;58.30;;;;;;5073482;28;20186;-25
2023/12/14 01:48:37;;;;;;;1.65;1.15;;;19.40;49.30;;;;;;5044236;28;20492;-28
2023/12/14 01:51:04;;;;;;;1.65;1.10;;;;;;;;;;5053445;28;20102;-27
2023/12/14 01:53:31;;;;;;;1.70;1.25;;;19.50;69.40;;;;;;5053499;28;20095;-26
2023/12/14 01:55:58;;;;;;;1.73;1.20;;;;;;;;;;5053258;28;20118;-27
2023/12/14 01:58:26;;;;;;;1.40;1.10;;;19.10;69.70;;;;;;5053373;28;20098;-32
2023/12/14 02:00:56;;;;;;;1.17;1.08;;;19.40;49.40;;;;;;5052864;28;20135;-30
2023/12/14 02:03:23;;;;;;;1.60;1.30;;;19.20;66.90;;;;;;5053243;28;20049;-25
2023/12/14 02:05:51;;;;;;;1.30;1.20;;;19.10;69.30;;;;;;5070651;28;20060;-32
2023/12/14 02:08:18;;;;;;;2.20;1.20;;;18.70;69.50;;;;;;5073238;28;20102;-24
2023/12/14 02:10:45;;;;;;;1.75;1.10;;;;;;;;;;5072680;28;20044;-25
2023/12/14 02:13:11;;;;;;;1.55;1.20;;;19.00;69.60;;;;;;5072994;28;20044;-29
2023/12/14 02:15:38;;;;;;;1.10;1.00;;;19.30;69.70;;;;;;5070995;28;20044;-24
2023/12/14 02:18:05;;;;;;;1.10;1.00;;;19.40;52.60;;;;;;5068516;28;20053;-24
2023/12/14 02:20:32;;;;;;;1.30;1.10;;;19.70;70.10;;;;;;5053011;28;20461;-25
2023/12/14 02:23:01;;;;;;;1.27;1.02;;;19.50;59.70;;;;;;5060768;28;20056;-27
2023/12/14 02:25:28;;;;;;;1.67;1.00;;;19.60;69.70;;;;;;5066495;28;20049;-24
2023/12/14 02:27:56;;;;;;;1.20;1.10;;;;;;;;;;5072651;28;20048;-28
2023/12/14 02:30:22;;;;;;;1.60;1.08;;;19.40;69.40;;;;;;5066781;28;20466;-23
2023/12/14 02:32:49;;;;;;;1.15;1.00;;;19.60;59.80;;;;;;5052679;28;20487;-25
2023/12/14 02:35:18;;;;;;;1.30;1.17;;;19.70;69.60;;;;;;5052399;28;20044;-27
2023/12/14 02:37:44;;;;;;;1.60;1.23;;;19.30;69.80;;;;;;5067483;28;20049;-29
2023/12/14 02:40:13;;;;;;;1.20;1.10;;;19.40;49.30;;;;;;5072418;28;20055;-27
2023/12/14 02:42:40;;;;;;;1.60;1.10;;;18.80;69.30;;;;;;5072380;28;20044;-30
2023/12/14 02:45:08;;;;;;;1.17;0.98;;;18.50;68.90;;;;;;5072057;28;20106;-30
2023/12/14 02:47:35;;;;;;;1.10;1.00;;;19.80;69.80;;;;;;5071560;28;20443;-29
2023/12/14 02:50:02;;;;;;;1.33;1.02;;;19.30;62.40;;;;;;5072420;28;20094;-27
2023/12/14 02:52:29;;;;;;;1.30;1.10;;;19.60;55.50;;;;;;5072350;28;20056;-24
2023/12/14 02:54:56;;;;;;;1.38;1.10;;;;;;;;;;5072317;28;20134;-27
2023/12/14 02:57:24;;;;;;;1.17;1.08;;;19.80;69.70;;;;;;5071454;28;20057;-28
2023/12/14 02:59:51;;;;;;;1.38;1.00;;;19.50;69.10;;;;;;5072456;28;20052;-30
2023/12/14 03:02:18;;;;;;;1.30;1.10;;;;;;;;;;5072134;28;20111;-28
2023/12/14 03:04:45;;;;;;;1.27;0.95;;;19.60;51.10;;;;;;5072117;28;20048;-25
2023/12/14 03:07:12;;;;;;;1.10;1.00;;;;;;;;;;5071883;28;20576;-27
2023/12/14 03:09:43;;;;;;;1.40;1.08;;;19.30;68.20;;;;;;5071993;28;20052;-25
2023/12/14 03:12:10;;;;;;;1.25;1.05;;;19.80;69.20;;;;;;5071615;28;20049;-25
2023/12/14 03:14:38;;;;;;;1.40;1.15;;;19.90;61.20;;;;;;5071746;28;20048;-26
2023/12/14 03:17:05;;;;;;;1.23;1.02;;;19.90;67.10;;;;;;5071720;28;20056;-25
2023/12/14 03:19:32;;;;;;;1.45;1.17;;;20.10;69.30;;;;;;5068776;28;20059;-25
2023/12/14 03:21:59;;;;;;;1.35;1.00;;;19.10;50.70;;;;;;5072096;28;20052;-26
2023/12/14 03:24:25;;;;;;;1.50;1.10;;;20.00;65.90;;;;;;5071842;28;20094;-25
2023/12/14 03:26:53;;;;;;;1.35;1.15;;;19.60;68.70;;;;;;5071470;28;20052;-25
2023/12/14 03:29:21;;;;;;;1.42;1.00;;;19.50;69.00;;;;;;5070710;28;20044;-25
2023/12/14 03:31:49;;;;;;;1.10;1.00;;;20.40;69.00;;;;;;5071506;28;20423;-26
2023/12/14 03:34:16;;;;;;;1.50;1.10;;;;;;;;;;5071638;28;20048;-25
2023/12/14 03:36:43;;;;;;;1.33;1.10;;;;;;;;;;5071102;28;20044;-26
2023/12/14 03:39:10;;;;;;;1.73;1.20;;;20.50;69.00;;;;;;5071741;28;20055;-24
2023/12/14 03:41:37;;;;;;;1.67;1.33;;;;;;;;;;5071953;28;20121;-27
2023/12/14 03:44:04;;;;;;;1.50;1.00;;;20.80;69.10;;;;;;5071535;28;20048;-31
2023/12/14 03:46:32;;;;;;;1.60;1.20;;;;;;;;;;5070855;28;20131;-27
2023/12/14 03:49:00;;;;;;;1.60;1.17;;;19.90;68.60;;;;;;5071611;28;20114;-24
2023/12/14 03:51:27;;;;;;;1.73;1.23;;;20.30;68.90;;;;;;5071624;28;20102;-27
2023/12/14 03:53:54;;;;;;;1.88;1.40;;;20.10;50.70;;;;;;5071378;28;20052;-27
2023/12/14 03:56:21;;;;;;;1.50;1.10;;;19.90;68.90;;;;;;5071438;28;20056;-32
2023/12/14 03:58:48;;;;;;;1.90;1.42;;;;;;;;;;5071749;28;20074;-27
2023/12/14 04:01:18;;;;;;;1.38;1.17;;;20.10;69.00;;;;;;5070076;28;20045;-24
2023/12/14 04:03:45;;;;;;;1.50;1.20;;;;;;;;;;5051436;28;20525;-25
2023/12/14 04:06:14;;;;;;;1.00;0.90;;;20.20;66.20;;;;;;5050720;28;20048;-27
2023/12/14 04:08:41;;;;;;;1.33;1.15;;;20.00;68.70;;;;;;5051627;28;20053;-29
2023/12/14 04:11:08;;;;;;;1.58;1.20;;;20.30;68.50;;;;;;5059038;28;20048;-31
2023/12/14 04:13:34;;;;;;;2.30;1.30;;;20.40;62.90;;;;;;5070785;28;20102;-29
2023/12/14 04:16:02;;;;;;;1.60;1.20;;;;;;;;;;5051113;28;20053;-26
2023/12/14 04:18:29;;;;;;;1.42;1.20;;;20.00;68.30;;;;;;5051394;28;20064;-25
2023/12/14 04:20:56;;;;;;;1.95;1.30;;;19.00;67.90;;;;;;5051433;28;20049;-25
2023/12/14 04:23:24;;;;;;;1.63;1.02;;;21.40;60.70;;;;;;5051388;28;20111;-26
2023/12/14 04:25:51;;;;;;;1.83;1.30;;;20.40;56.70;;;;;;5051174;28;20044;-27
2023/12/14 04:28:18;;;;;;;1.40;1.20;;;19.50;68.30;;;;;;5050927;28;20076;-27
2023/12/14 04:30:45;;;;;;;1.70;1.60;;;;;;;;;;5051231;28;20090;-27
2023/12/14 04:33:12;;;;;;;2.15;1.48;;;;;;;;;;5051128;28;20057;-25
2023/12/14 04:35:39;;;;;;;1.80;1.20;;;19.80;51.30;;;;;;5063251;28;20076;-28
2023/12/14 04:38:06;;;;;;;1.40;1.20;;;20.60;68.90;;;;;;5070955;28;20089;-29
2023/12/14 04:40:34;;;;;;;2.17;1.30;;;19.70;68.10;;;;;;5072820;28;20048;-32
2023/12/14 04:43:01;;;;;;;2.03;1.50;;;;;;;;;;5074735;28;20506;-27
2023/12/14 04:45:28;;;;;;;1.70;1.30;;;20.00;68.20;;;;;;5074206;28;20444;-27
2023/12/14 04:47:55;;;;;;;1.60;1.40;;;;;;;;;;5074641;28;20733;-28
2023/12/14 04:50:22;;;;;;;1.80;1.10;;;;;;;;;;5073972;28;20440;-27
2023/12/14 04:52:49;;;;;;;1.98;1.30;;;;;;;;;;5054639;28;20053;-27
2023/12/14 04:55:16;;;;;;;1.70;1.20;;;20.50;68.40;;;;;;5054401;28;20053;-31
2023/12/14 04:57:46;;;;;;;2.10;1.33;;;20.10;68.20;;;;;;5054187;28;20092;-26
2023/12/14 05:00:14;;;;;;;1.90;1.27;;;20.20;68.30;;;;;;5054139;28;20505;-27
2023/12/14 05:02:41;;;;;;;1.48;1.05;;;21.20;66.10;;;;;;5054537;28;20049;-25
2023/12/14 05:05:08;;;;;;;1.38;1.20;;;20.20;48.30;;;;;;5054354;28;20186;-26
2023/12/14 05:07:35;;;;;;;1.80;1.30;;;19.90;56.70;;;;;;5053643;28;20106;-31
2023/12/14 05:10:02;;;;;;;2.05;1.30;;;;;;;;;;5053972;28;20049;-27
2023/12/14 05:12:31;;;;;;;1.85;1.33;;;19.90;68.20;;;;;;5054138;28;20055;-30
2023/12/14 05:14:59;;;;;;;1.70;1.30;;;20.20;48.30;;;;;;5053911;28;20568;-27
2023/12/14 05:17:26;;;;;;;1.88;1.38;;;20.70;48.90;;;;;;5053755;28;20396;-27
2023/12/14 05:19:56;;;;;;;1.98;1.67;;;20.00;68.20;;;;;;5053913;28;20563;-24
2023/12/14 05:22:23;;;;;;;2.38;1.52;;;19.30;68.10;;;;;;5054042;28;20540;-24
2023/12/14 05:24:50;;;;;;;1.95;1.30;;;20.10;68.30;;;;;;5053519;28;20607;-25
2023/12/14 05:27:16;;;;;;;2.03;1.33;;;20.60;53.40;;;;;;5053703;28;20498;-27
2023/12/14 05:29:43;;;;;;;1.65;1.20;;;20.00;52.30;;;;;;5053737;28;20044;-27
2023/12/14 05:32:12;;;;;;;1.45;1.23;;;20.20;48.30;;;;;;5053846;28;20056;-28
2023/12/14 05:34:39;;;;;;;1.88;1.30;;;20.60;54.90;;;;;;5053787;28;20167;-28
2023/12/14 05:37:05;;;;;;;1.75;1.50;;;20.60;68.80;;;;;;5053026;28;20080;-25
2023/12/14 05:39:32;;;;;;;2.13;1.50;;;20.00;50.40;;;;;;5053913;28;20398;-29
2023/12/14 05:41:59;;;;;;;1.88;1.40;;;19.20;67.50;;;;;;5052962;28;20547;-30
2023/12/14 05:44:26;;;;;;;3.63;1.30;;;21.00;69.10;;;;;;5053544;28;20067;-31
2023/12/14 05:46:53;;;;;;;2.30;1.50;;;;;;;;;;5053570;28;20106;-28
2023/12/14 05:49:22;;;;;;;1.70;1.30;;;19.90;68.50;;;;;;5053413;28;20513;-25
2023/12/14 05:51:49;;;;;;;2.47;1.42;;;20.60;67.20;;;;;;5053186;28;20128;-25
2023/12/14 05:54:15;;;;;;;1.90;1.40;;;19.70;61.70;;;;;;5053326;28;20099;-29
2023/12/14 05:56:42;;;;;;;2.33;1.67;;;19.90;68.10;;;;;;5053003;28;20049;-31
2023/12/14 05:59:09;;;;;;;1.65;1.50;;;;;;;;;;5053136;28;20056;-28
2023/12/14 06:01:36;;;;;;;2.10;1.50;;;20.20;68.50;;;;;;5053473;28;20099;-27
2023/12/14 06:04:03;;;;;;;1.67;1.38;;;20.30;68.60;;;;;;5053463;28;20057;-29
2023/12/14 06:06:32;;;;;;;1.92;1.40;;;19.20;67.70;;;;;;5052860;28;20044;-25
2023/12/14 06:08:58;;;;;;;2.95;1.58;;;19.00;67.50;;;;;;5052976;28;20048;-27
2023/12/14 06:11:25;;;;;;;2.63;1.40;;;19.30;67.70;;;;;;5052813;28;20049;-30
2023/12/14 06:13:52;;;;;;;2.50;1.60;;;21.30;66.50;;;;;;5052997;28;20091;-30
2023/12/14 06:16:19;;;;;;;2.03;1.50;;;20.20;68.30;;;;;;5052198;28;20053;-29
2023/12/14 06:18:46;;;;;;;2.65;1.40;;;;;;;;;;5053069;28;20049;-28
2023/12/14 06:21:13;;;;;;;1.95;1.60;;;19.80;68.40;;;;;;5052899;28;20045;-25
2023/12/14 06:23:41;;;;;;;2.42;1.60;;;20.20;48.60;;;;;;5052651;28;20396;-26
2023/12/14 06:26:08;;;;;;;2.03;1.40;;;20.80;56.70;;;;;;5052795;28;20114;-25
2023/12/14 06:28:35;;;;;;;2.30;1.58;;;20.10;55.70;;;;;;5052672;28;20049;-29
2023/12/14 06:31:02;;;;;;;1.73;1.23;;;19.70;68.10;;;;;;5052602;28;20098;-29
2023/12/14 06:33:29;;;;;;;1.90;1.58;;;20.20;68.50;;;;;;5052591;28;20048;-29
2023/12/14 06:35:56;;;;;;;1.90;1.45;;;20.30;68.20;;;;;;5052527;28;20053;-29
2023/12/14 06:38:23;;;;;;;3.13;1.80;;;;;;;;;;5072584;28;20098;-25
2023/12/14 06:40:51;;;;;;;2.05;1.60;;;19.60;50.70;;;;;;5072235;28;20056;-25
2023/12/14 06:43:18;;;;;;;1.65;1.30;;;20.20;68.60;;;;;;5068872;28;20048;-26
2023/12/14 06:45:45;;;;;;;2.00;1.50;;;20.00;50.90;;;;;;5052199;28;20083;-26
2023/12/14 06:48:12;;;;;;;2.90;1.77;;;20.10;68.00;;;;;;5052228;28;20053;-33
2023/12/14 06:50:38;;;;;;;2.33;1.50;;;20.40;68.60;;;;;;5052170;28;20099;-24
2023/12/14 06:53:05;;;;;;;1.90;1.50;;;20.20;57.30;;;;;;5052360;28;20460;-28
2023/12/14 06:55:32;;;;;;;2.20;1.70;;;19.40;67.80;;;;;;5051876;28;20442;-25
2023/12/14 06:58:00;;;;;;;2.00;1.40;;;19.20;47.60;;;;;;5051911;28;20540;-26
2023/12/14 07:00:29;;;;;;;1.73;1.50;;;20.80;53.90;;;;;;5053302;28;20379;-26
2023/12/14 07:02:56;;;;;;;1.50;1.23;;;19.30;67.90;;;;;;5056696;28;20516;-26
2023/12/14 07:05:22;;;;;;;1.92;1.63;;;19.30;67.80;;;;;;5071962;28;20052;-34
2023/12/14 07:07:49;;;;;;;2.17;1.55;;;20.80;50.00;;;;;;5071985;28;20052;-28
2023/12/14 07:10:16;;;;;;;3.00;1.60;;;20.60;68.40;;;;;;5072121;28;20121;-30
2023/12/14 07:12:43;;;;;;;2.47;1.70;;;20.70;68.30;;;;;;5072008;28;20690;-24
2023/12/14 07:15:11;;;;;;;1.75;1.40;;;20.00;64.10;;;;;;5071805;28;20071;-25
2023/12/14 07:17:38;;;;;;;2.05;1.63;;;20.20;59.20;;;;;;5067565;28;20091;-25
2023/12/14 07:20:07;;;;;;;2.35;1.45;;;20.60;68.70;;;;;;5071683;28;20052;-26
2023/12/14 07:22:34;;;;;;;2.30;1.55;;;;;;;;;;5072143;28;20094;-27
2023/12/14 07:25:01;;;;;;;2.45;1.45;;;20.30;68.10;;;;;;5071699;28;20048;-25
2023/12/14 07:27:28;;;;;;;1.92;1.42;;;;;;;;;;5071755;28;20556;-26
2023/12/14 07:29:55;;;;;;;2.33;1.50;;;20.60;65.80;;;;;;5071842;28;20463;-25
2023/12/14 07:32:23;;;;;;;2.20;1.80;;;19.10;67.50;;;;;;5062148;28;20722;-24
2023/12/14 07:34:50;;;;;;;2.60;1.65;;;;;;;;;;5035198;28;20126;-27
2023/12/14 07:37:17;;;;;;;2.38;1.58;;;20.40;68.50;;;;;;5062709;28;20048;-28
2023/12/14 07:39:44;;;;;;;1.98;1.45;;;20.30;68.40;;;;;;5062628;28;20044;-29
2023/12/14 07:42:11;;;;;;;1.90;1.40;;;20.20;68.40;;;;;;5051563;28;20149;-27
2023/12/14 07:44:40;;;;;;;3.90;1.60;;;20.40;68.50;;;;;;5051810;28;20122;-24
2023/12/14 07:47:07;;;;;;;3.47;1.92;;;20.50;59.50;;;;;;5051202;28;20244;-28
2023/12/14 07:49:35;;;;;;;1.85;1.40;;;20.30;48.10;;;;;;5051625;28;20468;-26
2023/12/14 07:52:02;;;;;;;2.72;1.40;;;21.10;68.80;;;;;;5055334;28;20052;-23
2023/12/14 07:54:29;;;;;;;2.70;1.30;;;21.00;61.20;;;;;;5051478;28;20106;-25
2023/12/14 07:56:56;;;;;;;4.95;1.90;;;20.50;68.50;;;;;;5056389;28;20045;-24
2023/12/14 07:59:23;;;;;;;2.03;1.50;;;20.50;60.00;;;;;;5057894;28;20049;-25
2023/12/14 08:01:50;;;;;;;2.33;1.50;;;21.10;68.40;;;;;;5069223;28;20044;-30
2023/12/14 08:04:17;;;;;;;2.00;1.52;;;;;;;;;;5058169;28;20090;-27
2023/12/14 08:06:45;;;;;;;2.03;1.50;;;20.70;68.50;;;;;;5058667;28;20045;-27
2023/12/14 08:09:12;;;;;;;2.97;1.60;;;21.60;68.90;;;;;;5069386;28;20094;-29
2023/12/14 08:11:39;;;;;;;2.33;1.58;;;;;;;;;;5054639;28;20049;-29
2023/12/14 08:14:06;;;;;;;2.38;1.60;;;20.30;67.80;;;;;;5067989;28;20048;-24
2023/12/14 08:16:33;;;;;;;2.28;1.52;;;;;;;;;;5039573;28;20556;-28
2023/12/14 08:19:00;;;;;;;2.90;1.92;;;20.20;58.00;;;;;;5062590;28;20772;-29
2023/12/14 08:21:28;;;;;;;2.70;1.50;;;;;;;;;;5057489;28;20049;-26
2023/12/14 08:23:56;;;;;;;2.70;1.58;;;20.70;66.30;;;;;;5074133;28;20102;-27
2023/12/14 08:26:24;;;;;;;2.67;1.40;;;;;;;;;;5062591;28;20114;-28
2023/12/14 08:28:50;;;;;;;2.65;1.50;;;20.60;68.10;;;;;;5075038;28;20045;-28
2023/12/14 08:31:17;;;;;;;2.15;1.38;;;20.50;57.20;;;;;;5062439;28;20049;-27
2023/12/14 08:33:44;;;;;;;2.28;1.50;;;20.70;61.30;;;;;;5054457;28;20106;-25
2023/12/14 08:36:11;;;;;;;2.20;1.50;;;19.70;67.10;;;;;;5053627;28;20052;-25
2023/12/14 08:38:38;;;;;;;3.13;1.75;;;;;;;;;;5053842;28;20099;-27
2023/12/14 08:41:06;;;;;;;2.03;1.50;;;21.30;68.30;;;;;;5054764;28;20455;-29
2023/12/14 08:43:33;;;;;;;2.95;1.77;;;20.10;67.40;;;;;;5054488;28;20091;-29
2023/12/14 08:46:00;;;;;;;2.60;1.65;;;;;;;;;;5054542;28;20406;-27
2023/12/14 08:48:27;;;;;;;2.70;1.40;;;21.60;68.30;;;;;;5054278;28;20449;-25
2023/12/14 08:50:55;;;;;;;2.65;2.00;;;20.90;47.80;;;;;;5054576;28;20513;-27
2023/12/14 08:53:22;;;;;;;3.25;1.80;;;;;;;;;;5054190;28;20041;-27
2023/12/14 08:55:49;;;;;;;2.30;1.65;;;20.50;56.70;;;;;;5054161;28;20082;-27
2023/12/14 08:58:17;;;;;;;2.78;1.67;;;20.50;67.70;;;;;;5036887;28;20061;-25
2023/12/14 09:00:44;;;;;;;2.00;1.60;;;22.00;68.40;;;;;;5054265;28;20049;-25
2023/12/14 09:03:11;;;;;;;2.25;1.60;;;;;;;;;;5054454;28;20056;-27
2023/12/14 09:05:41;;;;;;;4.10;1.95;;;20.80;67.80;;;;;;5053756;28;20044;-27
2023/12/14 09:08:08;;;;;;;1.90;1.70;;;21.00;67.90;;;;;;5053610;28;20130;-29
2023/12/14 09:10:35;;;;;;;2.55;1.65;;;;;;;;;;5053513;28;20049;-29
2023/12/14 09:13:04;;;;;;;2.38;1.70;;;21.20;67.70;;;;;;5053489;28;20494;-25
2023/12/14 09:15:32;;;;;;;2.05;1.75;;;21.10;67.90;;;;;;5053531;28;20045;-30
2023/12/14 09:17:59;;;;;;;3.33;1.90;;;20.60;67.30;;;;;;5061777;28;20045;-24
2023/12/14 09:20:26;;;;;;;3.05;2.03;;;20.70;65.30;;;;;;5062888;28;20053;-29
2023/12/14 09:22:53;;;;;;;2.92;2.10;;;21.00;67.90;;;;;;5073914;28;20052;-29
2023/12/14 09:25:20;;;;;;;2.20;2.00;;;20.90;53.40;;;;;;5073652;28;20410;-27
2023/12/14 09:27:47;;;;;;;2.67;1.85;;;20.80;67.50;;;;;;5073637;28;20048;-30
2023/12/14 09:30:14;;;;;;;4.00;2.30;;;20.90;47.70;;;;;;5072964;28;20045;-27
2023/12/14 09:32:43;;;;;;;2.92;1.98;;;20.90;67.90;;;;;;5073339;28;20059;-29
2023/12/14 09:35:10;;;;;;;3.25;2.17;;;19.90;59.50;;;;;;5073777;28;20052;-29
2023/12/14 09:37:37;;;;;;;3.40;2.42;;;21.30;68.10;;;;;;5072573;28;20098;-25
2023/12/14 09:40:04;;;;;;;4.90;2.28;;;20.90;47.80;;;;;;5058662;28;20049;-26
2023/12/14 09:42:34;;;;;;;3.80;2.22;;;20.70;58.40;;;;;;5053389;28;20395;-27
2023/12/14 09:45:01;;;;;;;6.90;2.35;;;21.80;57.70;;;;;;5055385;28;20048;-29
2023/12/14 09:47:27;;;;;;;3.28;2.33;;;20.10;67.40;;;;;;5060260;28;20044;-30
2023/12/14 09:49:56;;;;;;;3.28;2.20;;;20.90;47.70;;;;;;5061981;28;20049;-29
2023/12/14 09:52:23;;;;;;;3.78;2.35;;;;;;;;;;5059543;28;20126;-27
2023/12/14 09:54:50;;;;;;;4.68;2.75;;;20.80;64.70;;;;;;5060278;28;20052;-27
2023/12/14 09:57:19;;;;;;;2.70;2.22;;;20.50;54.10;;;;;;5059693;28;20048;-32
2023/12/14 09:59:52;;;;;;;3.22;2.30;;;20.00;67.20;;;;;;5061686;28;20449;-31
2023/12/14 10:02:19;;;;;;;3.55;2.38;;;20.20;58.80;;;;;;5052593;28;20056;-29
2023/12/14 10:04:46;;;;;;;3.95;2.30;;;20.80;67.40;;;;;;5052531;28;20045;-32
2023/12/14 10:07:14;;;;;;;3.17;2.63;;;19.80;67.30;;;;;;5052114;28;20110;-24
2023/12/14 10:09:41;;;;;;;2.80;2.20;;;20.90;67.90;;;;;;5051887;28;20094;-25
2023/12/14 10:12:09;;;;;;;5.25;2.63;;;20.80;47.80;;;;;;5052395;28;20464;-26
2023/12/14 10:14:37;;;;;;;4.88;2.50;;;;;;;;;;5052877;28;20110;-29
2023/12/14 10:17:18;;;;;;;3.50;2.38;;;20.50;67.50;;;;;;5052220;28;20073;-27
2023/12/14 10:19:46;;;;;;;2.95;2.30;;;20.30;47.70;;;;;;5054916;28;20098;-27
2023/12/14 10:22:14;;;;;;;3.58;2.25;;;20.80;47.90;;;;;;5062987;28;20048;-30
2023/12/14 10:24:41;;;;;;;3.10;2.30;;;;;;;;;;5061977;28;20041;-27
2023/12/14 10:27:08;;;;;;;2.88;2.55;;;22.00;68.50;;;;;;5061006;28;20090;-29
2023/12/14 10:29:36;;;;;;;2.97;2.38;;;;;;;;;;5051982;28;20114;-28
2023/12/14 10:32:06;;;;;;;2.85;2.22;;;20.40;68.00;;;;;;5052339;28;20053;-23
2023/12/14 10:34:33;;;;;;;3.22;2.40;;;20.40;67.70;;;;;;5051991;28;20045;-25
2023/12/14 10:37:00;;;;;;;3.83;2.50;;;21.40;68.50;;;;;;5050633;28;20142;-24
2023/12/14 10:39:28;;;;;;;2.45;2.10;;;20.50;67.90;;;;;;5051660;28;20045;-29
2023/12/14 10:41:55;;;;;;;3.25;2.38;;;;;;;;;;5051612;28;20517;-27
2023/12/14 10:44:22;;;;;;;5.50;2.55;;;21.10;58.90;;;;;;5051932;28;20437;-25
2023/12/14 10:46:49;;;;;;;3.05;2.28;;;21.10;68.10;;;;;;5051815;28;20083;-25
2023/12/14 10:49:16;;;;;;;3.40;2.40;;;21.10;58.00;;;;;;5052102;28;20049;-25
2023/12/14 10:51:43;;;;;;;3.22;2.30;;;;;;;;;;5056685;28;20052;-24
2023/12/14 10:54:10;;;;;;;3.10;2.30;;;21.50;62.40;;;;;;5051879;28;20110;-25
2023/12/14 10:56:39;;;;;;;3.50;2.50;;;20.40;68.30;;;;;;5051538;28;20368;-28
2023/12/14 10:59:05;;;;;;;4.35;2.28;;;20.80;68.30;;;;;;5051674;28;20045;-29
2023/12/14 11:01:34;;;;;;;2.92;2.28;;;20.60;48.90;;;;;;5060876;28;20106;-27
2023/12/14 11:04:01;;;;;;;3.70;2.40;;;21.50;68.40;;;;;;5060976;28;20420;-29
2023/12/14 11:06:33;;;;;;;3.72;2.47;;;20.60;48.10;;;;;;5061823;28;20041;-25
2023/12/14 11:09:00;;;;;;;3.22;2.10;;;19.90;67.50;;;;;;5057146;28;20457;-25
2023/12/14 11:11:30;;;;;;;2.72;2.20;;;21.10;68.50;;;;;;5052177;28;20060;-25
2023/12/14 11:13:59;;;;;;;3.22;2.20;;;20.80;68.40;;;;;;5051675;28;20045;-24
2023/12/14 11:16:27;;;;;;;3.67;2.25;;;20.60;48.20;;;;;;5051700;28;20057;-25
2023/12/14 11:19:35;;;;;;;2.53;2.10;;;20.10;68.00;;;;;;5062562;28;20505;-25
2023/12/14 11:22:12;;;;;;;3.97;2.13;;;20.60;68.00;;;;;;5035891;28;20048;-24
2023/12/14 11:24:39;;;;;;;5.07;2.25;;;;;;;;;;5061351;28;20060;-27
2023/12/14 11:27:07;;;;;;;2.53;1.90;;;20.60;60.10;;;;;;5057130;28;20049;-25
2023/12/14 11:29:36;;;;;;;2.50;1.92;;;20.10;67.60;;;;;;5061834;28;20051;-25
2023/12/14 11:32:03;;;;;;;3.47;2.00;;;;;;;;;;5061862;28;20106;-26
2023/12/14 11:34:30;;;;;;;2.55;2.10;;;20.00;67.90;;;;;;5062462;28;20374;-23
2023/12/14 11:36:57;;;;;;;5.47;2.10;;;;;;;;;;5059482;28;20551;-26
2023/12/14 11:39:24;;;;;;;3.03;2.17;;;21.00;68.30;;;;;;5059729;28;20462;-25
2023/12/14 11:42:00;;;;;;;2.95;2.20;;;20.80;48.00;;;;;;5060459;28;20482;-29
2023/12/14 11:44:27;;;;;;;2.63;1.80;;;;;;;;;;5059191;28;20060;-27
2023/12/14 11:46:55;;;;;;;2.78;2.10;;;21.00;62.20;;;;;;5061529;28;20052;-29
2023/12/14 11:49:24;;;;;;;2.90;1.77;;;21.10;65.70;;;;;;5069091;28;20489;-28
2023/12/14 11:51:52;;;;;;;2.45;1.90;;;20.80;52.70;;;;;;5054992;28;20048;-31
2023/12/14 11:54:19;;;;;;;3.50;2.00;;;21.40;68.30;;;;;;5054842;28;20081;-25
2023/12/14 11:56:47;;;;;;;2.72;2.05;;;21.00;48.00;;;;;;5054983;28;20044;-26
2023/12/14 11:59:15;;;;;;;2.85;2.15;;;21.00;55.60;;;;;;5055463;28;20136;-26
2023/12/14 12:01:57;;;;;;;3.47;2.08;;;21.00;48.00;;;;;;5055289;28;20053;-26
2023/12/14 12:04:24;;;;;;;3.00;2.00;;;;;;;;;;5055219;28;20490;-28
2023/12/14 12:07:00;;;;;;;2.58;2.00;;;21.00;48.00;;;;;;5055308;28;20490;-27
2023/12/14 12:09:35;;;;;;;2.28;1.70;;;21.10;48.00;;;;;;5055163;28;20524;-24
2023/12/14 12:12:02;;;;;;;2.50;1.80;;;20.70;67.30;;;;;;5055196;28;20131;-27
2023/12/14 12:14:29;;;;;;;2.97;2.05;;;22.00;68.30;;;;;;5055358;28;20053;-31
2023/12/14 12:16:57;;;;;;;2.40;2.03;;;21.80;67.60;;;;;;5054899;28;20049;-30
2023/12/14 12:19:25;;;;;;;2.55;1.90;;;;;;;;;;5054749;28;20052;-28
2023/12/14 12:21:52;;;;;;;4.55;2.40;;;;;;;;;;5055003;28;20147;-32
2023/12/14 12:24:19;;;;;;;2.97;2.40;;;21.00;52.90;;;;;;5055029;28;20572;-30
2023/12/14 12:26:46;;;;;;;4.40;2.90;;;20.60;67.30;;;;;;5054848;28;20049;-34
2023/12/14 12:29:12;;;;;;;4.78;3.13;;;21.30;51.30;;;;;;5054929;28;20087;-29
2023/12/14 12:31:39;;;;;;;4.03;3.33;;;20.90;65.80;;;;;;5054237;28;20044;-28
2023/12/14 12:34:08;;;;;;;5.80;3.35;;;21.20;48.90;;;;;;5053659;28;20091;-29
2023/12/14 12:36:35;;;;;;;7.97;3.50;;;22.30;67.90;;;;;;5063473;28;20053;-29
2023/12/14 12:39:03;;;;;;;5.45;3.33;;;20.30;63.00;;;;;;5064415;28;20044;-30
2023/12/14 12:41:29;;;;;;;6.20;3.63;;;21.40;58.20;;;;;;5061676;28;20421;-31
2023/12/14 12:43:57;;;;;;;4.43;3.38;;;21.50;67.80;;;;;;5063858;28;20098;-26
2023/12/14 12:46:24;;;;;;;5.00;3.40;;;21.80;67.50;;;;;;5063564;28;20166;-26
2023/12/14 12:48:52;;;;;;;7.30;3.78;;;20.20;66.60;;;;;;5065375;28;20114;-26
2023/12/14 12:51:21;;;;;;;4.63;3.20;;;21.20;47.70;;;;;;5066528;28;20072;-30
2023/12/14 12:53:48;;;;;;;6.53;4.18;;;;;;;;;;5067182;28;20081;-27
2023/12/14 12:56:16;;;;;;;6.15;3.85;;;20.30;67.00;;;;;;5063197;28;20641;-26
2023/12/14 12:58:43;;;;;;;6.22;4.05;;;20.70;67.40;;;;;;5064840;28;20040;-31
2023/12/14 13:01:10;;;;;;;5.97;3.53;;;21.00;49.60;;;;;;5062615;28;20113;-30
2023/12/14 13:03:37;;;;;;;5.95;3.50;;;21.20;67.60;;;;;;5060197;28;20041;-33
2023/12/14 13:06:04;;;;;;;5.05;3.35;;;21.10;67.60;;;;;;5053650;28;20604;-31
2023/12/14 13:08:32;;;;;;;6.15;3.53;;;21.60;67.50;;;;;;5053443;28;20049;-32